Time;durP1;ratioP1;P1;durP2;ratioP2;P2;SDS_P1;SDS_P2;PMS_P1;PMS_P2;Temp;Humidity;BMP_temperature;BMP_pressure;BME280_temperature;BME280_humidity;BME280_pressure;Samples;Min_cycle;Max_cycle;Signal;HPM_P1;HPM_P2
2020/12/19 00:01:39;;;;;;;2.20;1.17;;;2.40;99.90;;;;;;4384472;32;20067;-56
2020/12/19 00:04:05;;;;;;;2.50;1.90;;;2.40;99.90;;;;;;4372239;32;20084;-59
2020/12/19 00:06:30;;;;;;;2.62;1.45;;;2.40;99.90;;;;;;4397784;32;20062;-55
2020/12/19 00:08:56;;;;;;;1.37;0.98;;;2.40;99.90;;;;;;4401456;32;20468;-56
2020/12/19 00:11:21;;;;;;;1.20;0.98;;;2.40;99.90;;;;;;4391646;32;20067;-61
2020/12/19 00:13:47;;;;;;;0.80;0.80;;;2.40;99.90;;;;;;4384536;32;20129;-57
2020/12/19 00:16:15;;;;;;;1.45;1.08;;;2.40;99.90;;;;;;4395857;32;20124;-58
2020/12/19 00:18:41;;;;;;;1.33;1.05;;;2.30;99.90;;;;;;4375932;32;20429;-56
2020/12/19 00:21:08;;;;;;;0.70;0.70;;;2.30;99.90;;;;;;4372770;32;20125;-58
2020/12/19 00:23:34;;;;;;;11.73;1.08;;;2.40;99.90;;;;;;4384249;32;20115;-57
2020/12/19 00:25:59;;;;;;;0.60;0.60;;;2.40;99.90;;;;;;4389822;32;20129;-58
2020/12/19 00:28:25;;;;;;;0.80;0.80;;;2.30;99.90;;;;;;4401279;32;20073;-57
2020/12/19 00:30:50;;;;;;;0.80;0.80;;;2.30;99.90;;;;;;4401395;32;20550;-56
2020/12/19 00:33:15;;;;;;;2.78;1.58;;;2.20;99.90;;;;;;4400745;32;20071;-55
2020/12/19 00:35:41;;;;;;;5.03;2.25;;;2.20;99.90;;;;;;4400329;32;20081;-57
2020/12/19 00:38:06;;;;;;;0.68;0.68;;;2.30;99.90;;;;;;4401074;32;20104;-55
2020/12/19 00:40:32;;;;;;;1.45;1.30;;;2.40;99.90;;;;;;4399167;32;20530;-54
2020/12/19 00:42:57;;;;;;;0.55;0.55;;;2.20;99.90;;;;;;4400627;32;20109;-55
2020/12/19 00:45:23;;;;;;;1.27;0.90;;;2.20;99.90;;;;;;4401136;32;20077;-53
2020/12/19 00:47:48;;;;;;;8.32;2.08;;;2.20;99.90;;;;;;4400257;32;20061;-57
2020/12/19 00:50:14;;;;;;;1.80;1.45;;;2.20;99.90;;;;;;4401246;32;20464;-57
2020/12/19 00:52:39;;;;;;;3.92;1.25;;;2.10;99.90;;;;;;4400696;32;20074;-56
2020/12/19 00:55:06;;;;;;;0.85;0.85;;;2.00;99.90;;;;;;4399064;32;20120;-59
2020/12/19 00:57:32;;;;;;;0.88;0.88;;;2.00;99.90;;;;;;4387591;32;20062;-57
2020/12/19 00:59:58;;;;;;;0.73;0.73;;;2.00;99.90;;;;;;4400932;32;20086;-59
2020/12/19 01:02:24;;;;;;;1.73;1.37;;;2.00;99.90;;;;;;4400033;32;20058;-57
2020/12/19 01:04:50;;;;;;;0.80;0.80;;;2.00;99.90;;;;;;4398378;32;20066;-57
2020/12/19 01:07:16;;;;;;;1.10;0.88;;;2.00;99.90;;;;;;4386238;32;20461;-57
2020/12/19 01:09:41;;;;;;;1.08;0.98;;;2.00;99.90;;;;;;4383410;32;20083;-53
2020/12/19 01:12:07;;;;;;;5.65;1.48;;;2.00;99.90;;;;;;4398963;32;20516;-56
2020/12/19 01:14:33;;;;;;;2.95;1.92;;;2.00;99.90;;;;;;4400106;32;20165;-58
2020/12/19 01:17:03;;;;;;;1.35;1.30;;;2.00;99.90;;;;;;4387754;32;20070;-58
2020/12/19 01:19:28;;;;;;;0.85;0.77;;;1.90;99.90;;;;;;4399530;32;20074;-56
2020/12/19 01:21:53;;;;;;;6.45;1.58;;;1.90;99.90;;;;;;4400924;32;20059;-54
2020/12/19 01:24:19;;;;;;;1.50;1.40;;;1.80;99.90;;;;;;4400010;32;20078;-56
2020/12/19 01:26:46;;;;;;;1.25;1.15;;;1.80;99.90;;;;;;4390490;32;20066;-56
2020/12/19 01:29:12;;;;;;;0.70;0.70;;;1.80;99.90;;;;;;4386479;32;20086;-58
2020/12/19 01:31:37;;;;;;;0.60;0.60;;;1.80;99.90;;;;;;4385403;32;20508;-57
2020/12/19 01:34:02;;;;;;;4.00;2.03;;;1.80;99.90;;;;;;4384531;32;20074;-54
2020/12/19 01:36:28;;;;;;;0.68;0.65;;;1.70;99.90;;;;;;4384984;32;20057;-58
2020/12/19 01:38:53;;;;;;;1.92;0.57;;;1.70;99.90;;;;;;4384161;32;20070;-57
2020/12/19 01:41:21;;;;;;;0.45;0.45;;;1.70;99.90;;;;;;4385047;32;20059;-59
2020/12/19 01:43:50;;;;;;;1.02;1.00;;;1.70;99.90;;;;;;4382862;32;20062;-58
2020/12/19 01:46:55;;;;;;;1.37;1.27;;;1.70;99.90;;;;;;4383457;32;20074;-58
2020/12/19 01:49:24;;;;;;;2.08;1.42;;;1.70;99.90;;;;;;4376151;32;20067;-58
2020/12/19 01:51:51;;;;;;;5.75;1.62;;;1.70;99.90;;;;;;4384704;32;20062;-59
2020/12/19 01:54:17;;;;;;;0.98;0.98;;;1.80;99.90;;;;;;4384714;32;20136;-59
2020/12/19 01:56:46;;;;;;;1.30;1.10;;;1.70;99.90;;;;;;4384486;32;20066;-58
2020/12/19 01:59:12;;;;;;;3.00;1.52;;;1.70;99.90;;;;;;4383829;32;20508;-57
2020/12/19 02:01:44;;;;;;;4.22;1.33;;;1.70;99.90;;;;;;4383447;32;20119;-58
2020/12/19 02:04:10;;;;;;;7.32;2.35;;;1.60;99.90;;;;;;4383218;32;20125;-54
2020/12/19 02:06:35;;;;;;;0.60;0.60;;;1.70;99.90;;;;;;4397178;32;20070;-56
2020/12/19 02:09:02;;;;;;;2.53;1.05;;;1.60;99.90;;;;;;4399771;32;20062;-58
2020/12/19 02:11:27;;;;;;;0.82;0.75;;;1.60;99.90;;;;;;4387328;32;20559;-57
2020/12/19 02:13:53;;;;;;;1.17;1.00;;;1.60;99.90;;;;;;4382021;32;20074;-53
2020/12/19 02:16:19;;;;;;;0.77;0.77;;;1.60;99.90;;;;;;4393855;32;20085;-56
2020/12/19 02:18:45;;;;;;;0.73;0.73;;;1.70;99.90;;;;;;4400797;32;20066;-54
2020/12/19 02:21:10;;;;;;;1.30;1.20;;;1.60;99.90;;;;;;4386011;32;20077;-57
2020/12/19 02:23:36;;;;;;;1.42;1.33;;;1.70;99.90;;;;;;4398221;32;20078;-58
2020/12/19 02:26:01;;;;;;;0.90;0.90;;;1.60;99.90;;;;;;4393778;32;20515;-58
2020/12/19 02:28:26;;;;;;;1.85;1.20;;;1.70;99.90;;;;;;4383126;32;20066;-55
2020/12/19 02:30:52;;;;;;;1.45;1.35;;;1.80;99.90;;;;;;4384058;32;20070;-57
2020/12/19 02:33:17;;;;;;;2.45;0.93;;;1.90;99.90;;;;;;4383640;32;20086;-58
2020/12/19 02:35:43;;;;;;;1.08;1.08;;;1.80;99.90;;;;;;4383523;32;20465;-56
2020/12/19 02:38:08;;;;;;;0.75;0.75;;;1.70;99.90;;;;;;4384553;32;20070;-56
2020/12/19 02:40:34;;;;;;;0.57;0.57;;;1.70;99.90;;;;;;4383840;32;20515;-55
2020/12/19 02:42:59;;;;;;;2.20;1.58;;;1.70;99.90;;;;;;4382686;32;20070;-56
2020/12/19 02:45:25;;;;;;;1.45;1.05;;;1.70;99.90;;;;;;4384389;32;20062;-57
2020/12/19 02:47:50;;;;;;;0.75;0.75;;;1.70;99.90;;;;;;4383754;32;20074;-54
2020/12/19 02:50:16;;;;;;;1.12;1.02;;;1.70;99.90;;;;;;4384582;32;20544;-56
2020/12/19 02:52:41;;;;;;;0.57;0.57;;;1.70;99.90;;;;;;4384427;32;20066;-56
2020/12/19 02:55:07;;;;;;;1.60;1.23;;;1.70;99.90;;;;;;4383804;32;20131;-57
2020/12/19 02:57:32;;;;;;;2.08;1.83;;;1.60;99.90;;;;;;4382108;32;20066;-56
2020/12/19 02:59:57;;;;;;;0.60;0.60;;;1.60;99.90;;;;;;4384820;32;20063;-54
2020/12/19 03:02:23;;;;;;;1.85;1.17;;;1.60;99.90;;;;;;4383965;32;20121;-55
2020/12/19 03:04:48;;;;;;;0.40;0.40;;;1.60;99.90;;;;;;4384695;32;20070;-53
2020/12/19 03:07:14;;;;;;;2.33;0.95;;;1.60;99.90;;;;;;4398869;32;20062;-57
2020/12/19 03:09:39;;;;;;;0.82;0.82;;;1.60;99.90;;;;;;4399522;32;20468;-57
2020/12/19 03:12:05;;;;;;;4.60;2.03;;;1.60;99.90;;;;;;4398689;32;20074;-57
2020/12/19 03:14:31;;;;;;;0.77;0.77;;;1.70;99.90;;;;;;4399221;32;20117;-58
2020/12/19 03:16:56;;;;;;;0.77;0.77;;;1.60;99.90;;;;;;4385546;32;20066;-55
2020/12/19 03:19:22;;;;;;;2.20;1.40;;;1.60;99.90;;;;;;4399666;32;20469;-54
2020/12/19 03:21:47;;;;;;;16.83;1.25;;;1.60;99.90;;;;;;4398346;32;20065;-58
2020/12/19 03:24:12;;;;;;;0.57;0.57;;;1.60;99.90;;;;;;4398510;32;20058;-58
2020/12/19 03:26:38;;;;;;;1.65;1.20;;;1.60;99.90;;;;;;4390813;32;20387;-57
2020/12/19 03:29:03;;;;;;;0.50;0.50;;;1.60;99.90;;;;;;4386893;32;20058;-59
2020/12/19 03:31:29;;;;;;;1.05;1.00;;;1.60;99.90;;;;;;4387013;32;20404;-57
2020/12/19 03:33:54;;;;;;;0.73;0.73;;;1.60;99.90;;;;;;4386754;32;20813;-56
2020/12/19 03:36:20;;;;;;;0.88;0.88;;;1.60;99.90;;;;;;4386597;32;20066;-54
2020/12/19 03:38:46;;;;;;;0.70;0.70;;;1.60;99.90;;;;;;4386929;32;20059;-55
2020/12/19 03:41:11;;;;;;;0.40;0.40;;;1.60;99.90;;;;;;4385533;32;20074;-55
2020/12/19 03:43:37;;;;;;;0.47;0.47;;;1.60;99.90;;;;;;4372455;32;20504;-57
2020/12/19 03:46:03;;;;;;;0.85;0.85;;;1.60;99.90;;;;;;4385662;32;20142;-58
2020/12/19 03:48:28;;;;;;;1.02;0.88;;;1.60;99.90;;;;;;4386726;32;20085;-59
2020/12/19 03:50:54;;;;;;;1.00;0.95;;;1.60;99.90;;;;;;4394605;32;20066;-58
2020/12/19 03:53:20;;;;;;;0.80;0.80;;;1.60;99.90;;;;;;4400039;32;20078;-57
2020/12/19 03:55:46;;;;;;;0.85;0.85;;;1.50;99.90;;;;;;4401008;32;20409;-59
2020/12/19 03:58:11;;;;;;;0.77;0.77;;;1.50;99.90;;;;;;4400839;32;20112;-58
2020/12/19 04:00:37;;;;;;;0.88;0.88;;;1.60;99.90;;;;;;4397990;32;20082;-58
2020/12/19 04:03:02;;;;;;;0.47;0.47;;;1.60;99.90;;;;;;4386993;32;20067;-57
2020/12/19 04:05:28;;;;;;;0.57;0.57;;;1.60;99.90;;;;;;4390307;32;20117;-59
2020/12/19 04:07:53;;;;;;;1.05;0.95;;;1.70;99.90;;;;;;4400860;32;20058;-58
2020/12/19 04:10:19;;;;;;;0.35;0.35;;;1.60;99.90;;;;;;4397180;32;20095;-58
2020/12/19 04:12:44;;;;;;;0.77;0.77;;;1.60;99.90;;;;;;4384320;32;20078;-57
2020/12/19 04:15:11;;;;;;;4.93;1.35;;;1.60;99.90;;;;;;4387895;32;20066;-55
2020/12/19 04:17:37;;;;;;;1.83;1.25;;;1.60;99.90;;;;;;4395249;32;20129;-57
2020/12/19 04:20:04;;;;;;;0.70;0.70;;;1.60;99.90;;;;;;4387194;32;20066;-58
2020/12/19 04:22:29;;;;;;;1.25;1.15;;;1.60;99.90;;;;;;4384995;32;20054;-57
2020/12/19 04:24:55;;;;;;;0.50;0.50;;;1.60;99.90;;;;;;4385929;32;20127;-57
2020/12/19 04:27:20;;;;;;;0.52;0.52;;;1.70;99.90;;;;;;4399209;32;20113;-56
2020/12/19 04:29:46;;;;;;;2.30;0.80;;;1.60;99.90;;;;;;4401165;32;20069;-58
2020/12/19 04:32:11;;;;;;;4.60;1.62;;;1.50;99.90;;;;;;4400167;32;20073;-58
2020/12/19 04:34:37;;;;;;;0.60;0.55;;;1.50;99.90;;;;;;4401381;32;20086;-58
2020/12/19 04:37:03;;;;;;;0.73;0.73;;;1.50;99.90;;;;;;4399955;32;20062;-57
2020/12/19 04:39:29;;;;;;;0.30;0.30;;;1.50;99.90;;;;;;4401255;32;20570;-58
2020/12/19 04:41:54;;;;;;;0.57;0.57;;;1.50;99.90;;;;;;4401158;32;20069;-58
2020/12/19 04:44:21;;;;;;;0.70;0.70;;;1.50;99.90;;;;;;4387142;32;20400;-57
2020/12/19 04:46:47;;;;;;;0.55;0.55;;;1.40;99.90;;;;;;4387520;32;20094;-57
2020/12/19 04:49:12;;;;;;;4.85;1.77;;;1.50;99.90;;;;;;4401649;32;20062;-59
2020/12/19 04:51:38;;;;;;;0.30;0.30;;;1.40;99.90;;;;;;4401015;32;20078;-55
2020/12/19 04:54:07;;;;;;;0.52;0.52;;;1.40;99.90;;;;;;4385824;32;20453;-54
2020/12/19 04:56:32;;;;;;;3.97;1.67;;;1.40;99.90;;;;;;4401262;32;20058;-54
2020/12/19 04:59:00;;;;;;;3.47;1.23;;;1.40;99.90;;;;;;4400836;32;20619;-55
2020/12/19 05:01:26;;;;;;;0.73;0.73;;;1.50;99.90;;;;;;4401153;32;20069;-58
2020/12/19 05:03:53;;;;;;;0.60;0.60;;;1.50;99.90;;;;;;4399053;32;20398;-56
2020/12/19 05:06:22;;;;;;;0.55;0.55;;;1.40;99.90;;;;;;4389037;32;20075;-59
2020/12/19 05:08:47;;;;;;;0.50;0.50;;;1.40;99.90;;;;;;4385913;32;20062;-57
2020/12/19 05:11:14;;;;;;;0.50;0.50;;;1.40;99.90;;;;;;4393986;32;20077;-54
2020/12/19 05:13:41;;;;;;;1.33;1.08;;;1.40;99.90;;;;;;4398737;32;20082;-55
2020/12/19 05:16:09;;;;;;;0.68;0.68;;;1.40;99.90;;;;;;4396756;32;20078;-58
2020/12/19 05:18:36;;;;;;;2.15;1.45;;;1.40;99.90;;;;;;4389029;32;20444;-57
2020/12/19 05:21:03;;;;;;;1.15;1.02;;;1.40;99.90;;;;;;4371508;32;20057;-58
2020/12/19 05:23:29;;;;;;;0.73;0.73;;;1.40;99.90;;;;;;4393288;32;20422;-53
2020/12/19 05:25:56;;;;;;;0.70;0.70;;;1.40;99.90;;;;;;4394564;32;20507;-58
2020/12/19 05:28:21;;;;;;;9.50;2.85;;;1.40;99.90;;;;;;4384048;32;20120;-58
2020/12/19 05:30:48;;;;;;;0.50;0.50;;;1.40;99.90;;;;;;4384972;32;20121;-58
2020/12/19 05:33:15;;;;;;;0.75;0.75;;;1.30;99.90;;;;;;4385017;32;20071;-58
2020/12/19 05:35:40;;;;;;;0.50;0.50;;;1.40;99.90;;;;;;4384934;32;20121;-56
2020/12/19 05:38:06;;;;;;;1.87;1.12;;;1.40;99.90;;;;;;4385813;32;20134;-59
2020/12/19 05:40:33;;;;;;;0.47;0.47;;;1.30;99.90;;;;;;4384367;32;20113;-58
2020/12/19 05:43:00;;;;;;;0.52;0.52;;;1.20;99.90;;;;;;4371881;32;20075;-58
2020/12/19 05:45:27;;;;;;;10.32;1.80;;;1.20;99.90;;;;;;4383009;32;20082;-56
2020/12/19 05:47:53;;;;;;;1.20;1.05;;;1.20;99.90;;;;;;4384381;32;20087;-57
2020/12/19 05:50:20;;;;;;;3.55;1.50;;;1.20;99.90;;;;;;4383184;32;20417;-58
2020/12/19 05:52:46;;;;;;;0.95;0.93;;;1.30;99.90;;;;;;4384429;32;20070;-57
2020/12/19 05:55:16;;;;;;;1.10;1.08;;;1.30;99.90;;;;;;4384000;32;20083;-57
2020/12/19 05:57:42;;;;;;;0.52;0.52;;;1.20;99.90;;;;;;4384046;32;20078;-58
2020/12/19 06:00:12;;;;;;;0.80;0.80;;;1.40;99.90;;;;;;4384334;32;20126;-58
2020/12/19 06:02:39;;;;;;;5.22;1.85;;;1.40;99.90;;;;;;4383404;32;20061;-57
2020/12/19 06:05:08;;;;;;;0.98;0.98;;;1.40;99.90;;;;;;4373862;32;20062;-59
2020/12/19 06:07:37;;;;;;;0.40;0.40;;;1.50;99.90;;;;;;4387907;32;20069;-54
2020/12/19 06:10:05;;;;;;;8.85;1.15;;;1.40;99.90;;;;;;4383727;32;20073;-59
2020/12/19 06:12:48;;;;;;;1.35;1.27;;;1.40;99.90;;;;;;4384826;32;20070;-58
2020/12/19 06:15:28;;;;;;;1.48;1.37;;;1.50;99.90;;;;;;4385830;32;20075;-59
2020/12/19 06:17:59;;;;;;;0.85;0.73;;;1.50;99.90;;;;;;4392631;32;20499;-57
2020/12/19 06:20:28;;;;;;;0.65;0.65;;;1.50;99.90;;;;;;4385571;32;20433;-57
2020/12/19 06:22:54;;;;;;;0.43;0.43;;;1.50;99.90;;;;;;4385256;32;20075;-59
2020/12/19 06:25:40;;;;;;;0.70;0.70;;;1.50;99.90;;;;;;4384181;32;20066;-55
2020/12/19 06:28:05;;;;;;;5.10;1.75;;;1.50;99.90;;;;;;4399929;32;20433;-59
2020/12/19 06:30:31;;;;;;;0.47;0.47;;;1.60;99.90;;;;;;4398639;32;20070;-59
2020/12/19 06:33:14;;;;;;;0.60;0.60;;;1.50;99.90;;;;;;4397912;32;20137;-58
2020/12/19 06:35:48;;;;;;;0.60;0.60;;;1.50;99.90;;;;;;4399656;32;20069;-56
2020/12/19 06:38:34;;;;;;;2.28;1.35;;;1.50;99.90;;;;;;4397902;32;20118;-58
2020/12/19 06:40:59;;;;;;;0.62;0.62;;;1.50;99.90;;;;;;4387756;32;20152;-59
2020/12/19 06:43:25;;;;;;;0.93;0.93;;;1.60;99.90;;;;;;4398829;32;20069;-57
2020/12/19 06:45:50;;;;;;;0.57;0.57;;;1.60;99.90;;;;;;4399425;32;20097;-59
2020/12/19 06:48:36;;;;;;;0.62;0.62;;;1.50;99.90;;;;;;4399268;32;20125;-58
2020/12/19 06:51:03;;;;;;;0.47;0.47;;;1.50;99.90;;;;;;4399162;32;20090;-57
2020/12/19 06:53:30;;;;;;;0.68;0.68;;;1.50;99.90;;;;;;4398027;32;20125;-55
2020/12/19 06:55:57;;;;;;;1.23;1.15;;;1.50;99.90;;;;;;4386064;32;20062;-56
2020/12/19 06:58:33;;;;;;;0.57;0.57;;;1.40;99.90;;;;;;4384899;32;20082;-55
2020/12/19 07:01:00;;;;;;;0.57;0.57;;;1.40;99.90;;;;;;4401172;32;20078;-53
2020/12/19 07:03:41;;;;;;;3.33;1.20;;;1.40;99.90;;;;;;4401995;32;20522;-56
2020/12/19 07:06:10;;;;;;;2.17;1.48;;;1.30;99.90;;;;;;4392280;32;20158;-58
2020/12/19 07:08:35;;;;;;;0.50;0.50;;;1.30;99.90;;;;;;4386338;32;20079;-55
2020/12/19 07:11:01;;;;;;;0.98;0.98;;;1.30;99.90;;;;;;4394926;32;20065;-56
2020/12/19 07:13:50;;;;;;;3.20;1.95;;;1.30;99.90;;;;;;4401190;32;20413;-55
2020/12/19 07:16:42;;;;;;;0.57;0.57;;;1.30;99.90;;;;;;4381029;32;20074;-55
2020/12/19 07:19:17;;;;;;;1.42;1.20;;;1.40;99.90;;;;;;4389858;32;20081;-56
2020/12/19 07:21:43;;;;;;;4.15;1.85;;;1.40;99.90;;;;;;4401483;32;20181;-56
2020/12/19 07:24:11;;;;;;;2.28;0.80;;;1.60;99.90;;;;;;4401029;32;20069;-55
2020/12/19 07:26:37;;;;;;;0.60;0.60;;;1.60;99.90;;;;;;4392985;32;20496;-57
2020/12/19 07:29:12;;;;;;;1.02;0.93;;;1.60;99.90;;;;;;4385899;32;20070;-57
2020/12/19 07:31:42;;;;;;;1.20;1.17;;;1.70;99.90;;;;;;4387269;32;20066;-57
2020/12/19 07:34:08;;;;;;;3.92;0.85;;;1.60;99.90;;;;;;4372893;32;20074;-58
2020/12/19 07:36:37;;;;;;;0.50;0.50;;;1.70;99.90;;;;;;4385346;32;20091;-57
2020/12/19 07:39:03;;;;;;;0.88;0.88;;;1.70;99.90;;;;;;4386304;32;20421;-54
2020/12/19 07:41:28;;;;;;;0.77;0.77;;;1.70;99.90;;;;;;4385406;32;20074;-58
2020/12/19 07:43:54;;;;;;;0.68;0.57;;;1.70;99.90;;;;;;4385407;32;20058;-57
2020/12/19 07:46:19;;;;;;;0.80;0.80;;;1.80;99.90;;;;;;4386738;32;20094;-58
2020/12/19 07:48:53;;;;;;;1.58;1.20;;;1.80;99.90;;;;;;4386198;32;20127;-59
2020/12/19 07:51:22;;;;;;;0.73;0.73;;;1.80;99.90;;;;;;4386786;32;20062;-59
2020/12/19 07:53:47;;;;;;;0.40;0.40;;;1.90;99.90;;;;;;4385992;32;20082;-58
2020/12/19 07:56:13;;;;;;;0.57;0.57;;;2.00;99.90;;;;;;4385857;32;20066;-59
2020/12/19 07:58:41;;;;;;;0.50;0.50;;;2.00;99.90;;;;;;4386707;32;20066;-54
2020/12/19 08:01:07;;;;;;;0.68;0.68;;;2.00;99.90;;;;;;4373252;32;20075;-54
2020/12/19 08:03:32;;;;;;;1.35;0.77;;;2.10;99.90;;;;;;4386001;32;20069;-56
2020/12/19 08:05:58;;;;;;;1.90;0.90;;;2.10;99.90;;;;;;4393870;32;20058;-59
2020/12/19 08:08:23;;;;;;;1.30;1.12;;;2.20;99.90;;;;;;4401201;32;20086;-57
2020/12/19 08:10:49;;;;;;;2.65;1.12;;;2.20;99.90;;;;;;4394396;32;20070;-56
2020/12/19 08:13:15;;;;;;;5.72;1.48;;;2.30;99.90;;;;;;4385039;32;20081;-59
2020/12/19 08:15:41;;;;;;;1.40;1.08;;;2.30;99.90;;;;;;4392170;32;20065;-59
2020/12/19 08:18:08;;;;;;;0.60;0.60;;;2.40;99.90;;;;;;4400578;32;20542;-58
2020/12/19 08:20:37;;;;;;;0.55;0.55;;;2.40;99.90;;;;;;4387860;32;20062;-58
2020/12/19 08:23:06;;;;;;;1.75;1.27;;;2.40;99.90;;;;;;4400942;32;20141;-55
2020/12/19 08:25:32;;;;;;;0.68;0.65;;;2.50;99.90;;;;;;4398596;32;20067;-59
2020/12/19 08:27:58;;;;;;;0.62;0.62;;;2.70;99.90;;;;;;4386508;32;20062;-58
2020/12/19 08:30:27;;;;;;;1.80;1.17;;;2.60;99.90;;;;;;4386585;32;20508;-58
2020/12/19 08:32:58;;;;;;;3.50;1.55;;;2.70;99.90;;;;;;4386495;32;20117;-59
2020/12/19 08:35:27;;;;;;;0.65;0.65;;;2.70;99.90;;;;;;4386432;32;20084;-59
2020/12/19 08:38:10;;;;;;;0.62;0.62;;;2.80;99.90;;;;;;4385688;32;20560;-59
2020/12/19 08:40:38;;;;;;;1.20;1.02;;;2.90;99.90;;;;;;4382871;32;103519;-59
2020/12/19 08:43:04;;;;;;;0.45;0.45;;;3.10;99.90;;;;;;4371552;32;20134;-54
2020/12/19 08:45:32;;;;;;;0.50;0.50;;;3.20;99.90;;;;;;4384847;32;20078;-55
2020/12/19 08:48:00;;;;;;;0.70;0.70;;;3.20;99.90;;;;;;4372056;32;20401;-58
2020/12/19 08:50:29;;;;;;;0.45;0.45;;;3.30;99.90;;;;;;4385542;32;20062;-58
2020/12/19 08:53:13;;;;;;;0.60;0.60;;;3.40;99.90;;;;;;4385340;32;20073;-57
2020/12/19 08:55:39;;;;;;;0.45;0.45;;;3.50;99.90;;;;;;4384746;32;20425;-56
2020/12/19 08:58:06;;;;;;;0.77;0.75;;;3.50;99.90;;;;;;4372990;32;20058;-56
2020/12/19 09:00:34;;;;;;;0.50;0.50;;;3.60;99.90;;;;;;4384793;32;20078;-59
2020/12/19 09:03:03;;;;;;;0.30;0.30;;;3.60;99.90;;;;;;4385388;32;20570;-60
2020/12/19 09:05:31;;;;;;;1.08;0.98;;;3.60;99.90;;;;;;4377594;32;20136;-59
2020/12/19 09:07:57;;;;;;;6.30;1.80;;;3.60;99.90;;;;;;4399939;32;20066;-57
2020/12/19 09:10:25;;;;;;;0.80;0.80;;;3.80;99.90;;;;;;4400991;32;20476;-58
2020/12/19 09:13:12;;;;;;;0.65;0.65;;;3.80;99.90;;;;;;4387043;32;20507;-59
2020/12/19 09:15:40;;;;;;;0.55;0.55;;;3.90;99.90;;;;;;4382851;32;20058;-59
2020/12/19 09:18:15;;;;;;;0.82;0.82;;;4.10;99.90;;;;;;4393227;32;20071;-57
2020/12/19 09:20:42;;;;;;;0.52;0.52;;;4.10;99.90;;;;;;4387628;32;20070;-59
2020/12/19 09:23:08;;;;;;;0.60;0.60;;;4.20;99.90;;;;;;4386019;32;20074;-59
2020/12/19 09:25:33;;;;;;;1.02;0.95;;;4.40;99.90;;;;;;4396610;32;20527;-54
2020/12/19 09:27:59;;;;;;;0.73;0.73;;;4.60;99.90;;;;;;4385610;32;20082;-56
2020/12/19 09:30:25;;;;;;;0.70;0.70;;;4.70;99.90;;;;;;4384939;32;20090;-59
2020/12/19 09:32:50;;;;;;;1.20;1.10;;;4.70;99.90;;;;;;4384872;32;20081;-58
2020/12/19 09:35:15;;;;;;;2.03;0.77;;;4.90;99.90;;;;;;4385631;32;20069;-55
2020/12/19 09:37:41;;;;;;;0.47;0.47;;;4.90;99.90;;;;;;4385260;32;20062;-55
2020/12/19 09:40:06;;;;;;;2.47;1.12;;;4.90;99.90;;;;;;4385182;32;20073;-59
2020/12/19 09:42:32;;;;;;;1.87;1.65;;;4.90;99.90;;;;;;4383777;32;20143;-58
2020/12/19 09:44:57;;;;;;;0.65;0.65;;;4.90;99.90;;;;;;4384591;32;20701;-59
2020/12/19 09:47:23;;;;;;;0.62;0.62;;;4.90;99.90;;;;;;4385030;32;20095;-59
2020/12/19 09:49:48;;;;;;;0.50;0.50;;;4.90;99.90;;;;;;4384544;32;20087;-59
2020/12/19 09:52:14;;;;;;;1.23;1.15;;;5.10;99.90;;;;;;4383717;32;20421;-57
2020/12/19 09:54:39;;;;;;;1.27;0.88;;;5.00;99.90;;;;;;4383812;32;20070;-58
2020/12/19 09:57:04;;;;;;;0.50;0.50;;;5.00;99.90;;;;;;4384259;32;20074;-59
2020/12/19 09:59:30;;;;;;;4.20;0.90;;;5.20;99.90;;;;;;4384487;32;20069;-59
2020/12/19 10:01:55;;;;;;;1.60;1.27;;;5.20;99.90;;;;;;4384860;32;20062;-59
2020/12/19 10:04:21;;;;;;;0.68;0.68;;;5.40;99.90;;;;;;4384654;32;20110;-55
2020/12/19 10:06:50;;;;;;;0.75;0.75;;;5.40;99.90;;;;;;4398672;32;20158;-56
2020/12/19 10:09:16;;;;;;;0.95;0.95;;;5.50;99.90;;;;;;4399763;32;20499;-59
2020/12/19 10:11:41;;;;;;;0.77;0.77;;;5.70;99.90;;;;;;4398658;32;20065;-58
2020/12/19 10:14:07;;;;;;;0.57;0.57;;;5.80;99.90;;;;;;4399437;32;20129;-57
2020/12/19 10:16:32;;;;;;;0.47;0.47;;;5.90;99.90;;;;;;4387520;32;20074;-59
2020/12/19 10:18:58;;;;;;;0.40;0.40;;;5.90;99.90;;;;;;4398163;32;20511;-59
2020/12/19 10:21:23;;;;;;;0.70;0.70;;;6.00;99.90;;;;;;4400405;32;20133;-57
2020/12/19 10:23:49;;;;;;;1.10;1.00;;;5.90;99.90;;;;;;4399715;32;20061;-57
2020/12/19 10:26:14;;;;;;;0.32;0.32;;;6.00;99.90;;;;;;4392267;32;20114;-58
2020/12/19 10:28:40;;;;;;;0.80;0.80;;;6.00;99.90;;;;;;4383705;32;20453;-58
2020/12/19 10:31:05;;;;;;;1.33;1.08;;;6.00;99.90;;;;;;4383960;32;20195;-57
2020/12/19 10:33:31;;;;;;;0.80;0.80;;;6.30;99.90;;;;;;4383776;32;20165;-58
2020/12/19 10:35:56;;;;;;;0.65;0.65;;;6.30;99.90;;;;;;4384765;32;20520;-59
2020/12/19 10:38:21;;;;;;;0.75;0.75;;;6.20;99.90;;;;;;4384745;32;20099;-56
2020/12/19 10:40:47;;;;;;;0.90;0.90;;;6.30;99.90;;;;;;4385140;32;20527;-59
2020/12/19 10:43:13;;;;;;;2.17;0.60;;;6.20;99.90;;;;;;4385664;32;20485;-57
2020/12/19 10:45:38;;;;;;;1.70;0.82;;;6.20;99.90;;;;;;4387325;32;20078;-57
2020/12/19 10:48:03;;;;;;;0.68;0.68;;;6.30;99.90;;;;;;4384853;32;20075;-58
2020/12/19 10:50:29;;;;;;;31.40;1.00;;;6.30;99.90;;;;;;4385228;32;20078;-58
2020/12/19 10:52:54;;;;;;;1.27;0.93;;;6.40;99.90;;;;;;4384874;32;20062;-59
2020/12/19 10:55:20;;;;;;;0.90;0.90;;;6.40;99.90;;;;;;4383292;32;20143;-58
2020/12/19 10:57:45;;;;;;;0.93;0.62;;;6.30;99.90;;;;;;4385983;32;20074;-56
2020/12/19 11:00:11;;;;;;;0.52;0.52;;;6.40;99.90;;;;;;4384369;32;20544;-58
2020/12/19 11:02:36;;;;;;;1.02;1.00;;;6.50;99.90;;;;;;4383681;32;20063;-59
2020/12/19 11:05:02;;;;;;;0.70;0.70;;;6.70;99.90;;;;;;4386556;32;20469;-58
2020/12/19 11:07:27;;;;;;;1.37;1.05;;;6.60;99.90;;;;;;4399883;32;20078;-60
2020/12/19 11:09:53;;;;;;;1.85;1.08;;;6.70;99.90;;;;;;4399381;32;20527;-59
2020/12/19 11:12:18;;;;;;;0.45;0.45;;;6.70;99.90;;;;;;4398991;32;20062;-59
2020/12/19 11:14:43;;;;;;;1.15;1.08;;;6.80;99.90;;;;;;4399640;32;20113;-59
2020/12/19 11:17:09;;;;;;;1.40;0.70;;;6.90;99.90;;;;;;4387066;32;20076;-59
2020/12/19 11:19:35;;;;;;;0.80;0.80;;;7.00;99.90;;;;;;4398476;32;20448;-55
2020/12/19 11:22:00;;;;;;;1.48;0.62;;;7.10;99.90;;;;;;4399830;32;20082;-55
2020/12/19 11:24:26;;;;;;;0.90;0.90;;;7.40;99.90;;;;;;4398041;32;20062;-56
2020/12/19 11:26:51;;;;;;;0.93;0.75;;;7.50;99.90;;;;;;4388769;32;20716;-57
2020/12/19 11:29:17;;;;;;;0.80;0.50;;;7.50;99.90;;;;;;4384625;32;20082;-58
2020/12/19 11:31:42;;;;;;;3.47;1.15;;;7.70;99.90;;;;;;4384259;32;20129;-59
2020/12/19 11:34:08;;;;;;;1.10;0.88;;;7.80;99.90;;;;;;4384563;32;20063;-58
2020/12/19 11:36:38;;;;;;;2.12;0.90;;;7.90;99.90;;;;;;4384786;32;20077;-59
2020/12/19 11:39:05;;;;;;;0.50;0.50;;;7.90;99.90;;;;;;4371524;32;20071;-59
2020/12/19 11:41:30;;;;;;;0.30;0.30;;;7.90;99.90;;;;;;4383792;32;20121;-55
2020/12/19 11:43:56;;;;;;;0.60;0.60;;;8.10;99.90;;;;;;4382816;32;20469;-59
2020/12/19 11:46:21;;;;;;;0.43;0.43;;;8.30;99.90;;;;;;4383924;32;20087;-59
2020/12/19 11:48:47;;;;;;;1.12;0.95;;;8.20;99.90;;;;;;4386670;32;20058;-59
2020/12/19 11:51:12;;;;;;;2.22;0.98;;;8.20;99.90;;;;;;4397275;32;20074;-59
2020/12/19 11:53:38;;;;;;;0.62;0.62;;;8.20;99.90;;;;;;4401453;32;20075;-59
2020/12/19 11:56:04;;;;;;;0.43;0.43;;;8.30;99.90;;;;;;4400864;32;20070;-57
2020/12/19 11:58:30;;;;;;;1.15;0.82;;;8.60;99.90;;;;;;4398921;32;20058;-57
2020/12/19 12:00:56;;;;;;;3.85;1.05;;;8.80;99.90;;;;;;4396412;32;20132;-55
2020/12/19 12:03:21;;;;;;;0.30;0.30;;;8.80;99.90;;;;;;4400796;32;20074;-56
2020/12/19 12:05:47;;;;;;;1.62;0.80;;;9.10;99.90;;;;;;4395196;32;20070;-55
2020/12/19 12:08:12;;;;;;;0.65;0.60;;;9.30;99.90;;;;;;4393909;32;20082;-58
2020/12/19 12:10:38;;;;;;;0.50;0.50;;;9.50;99.90;;;;;;4396171;32;20156;-56
2020/12/19 12:13:03;;;;;;;0.50;0.50;;;9.80;99.90;;;;;;4395336;32;20071;-55
2020/12/19 12:15:29;;;;;;;0.50;0.50;;;10.10;99.90;;;;;;4387076;32;20425;-56
2020/12/19 12:17:54;;;;;;;0.57;0.50;;;10.20;99.90;;;;;;4387533;32;20078;-57
2020/12/19 12:20:19;;;;;;;3.90;0.95;;;10.20;99.90;;;;;;4396370;32;20069;-59
2020/12/19 12:22:46;;;;;;;0.40;0.40;;;10.30;99.90;;;;;;4396180;32;20058;-59
2020/12/19 12:25:12;;;;;;;0.30;0.30;;;10.40;99.90;;;;;;4396306;32;20105;-58
2020/12/19 12:27:38;;;;;;;0.40;0.40;;;10.50;99.90;;;;;;4394095;32;20070;-58
2020/12/19 12:30:04;;;;;;;1.12;0.50;;;10.70;99.90;;;;;;4389568;32;20086;-55
2020/12/19 12:32:30;;;;;;;2.40;0.50;;;10.70;99.90;;;;;;4393884;32;20057;-57
2020/12/19 12:34:55;;;;;;;1.20;0.62;;;11.00;99.90;;;;;;4401325;32;20070;-59
2020/12/19 12:37:21;;;;;;;6.80;0.52;;;11.00;99.90;;;;;;4399735;32;20062;-59
2020/12/19 12:39:46;;;;;;;0.50;0.50;;;11.20;99.90;;;;;;4395607;32;20539;-58
2020/12/19 12:42:12;;;;;;;0.65;0.65;;;11.00;99.90;;;;;;4396865;32;20073;-59
2020/12/19 12:44:37;;;;;;;0.45;0.45;;;11.20;99.90;;;;;;4393281;32;20129;-56
2020/12/19 12:47:04;;;;;;;0.57;0.57;;;11.30;99.90;;;;;;4396523;32;20082;-59
2020/12/19 12:49:30;;;;;;;2.83;0.98;;;11.10;99.90;;;;;;4396009;32;20137;-58
2020/12/19 12:51:56;;;;;;;0.30;0.30;;;11.10;99.90;;;;;;4395003;32;20066;-56
2020/12/19 12:54:22;;;;;;;0.43;0.43;;;11.10;99.90;;;;;;4393122;32;20098;-58